Phyllis Dunlap — WDA6552 — position and weather

sailwx.info

Track history (hours):
 
Tides and Currents Weather Stations Pressure Air Temp Water Temp Dewpoint Dewpoint Depression Visibility Wind Speed Wind Dir Waves Ship Positions

Phyllis Dunlap

Owner: DUNLAP TOWING CO, LA CONNER, WA. More information available from US FCC via Universal Licensing System and Coast Guard Vessel Documentation Center.

Last reported at 2018-Jan-28 23:53 UTC. Time now 2018-Feb-22 05:29 UTC.
Position N 46°17' W 125°30'.
Warning: this ship's position is 24 days out of date.

Type: . MMSI: 366833610.

Date/timePositionNaut miles runAvg speedWind from/ knotsBaromVisibWave heightAir tempDewpointWater temp
2018-Jan-28 23:53N 46°17' W 125°30'6 4.3
2018-Jan-28 22:36N 46°22' W 125°30'1 4.1
2018-Jan-28 22:21N 46°23' W 125°30'116 5.1
2018-Jan-27 23:43N 48°18' W 125°07'2 4.3
2018-Jan-27 23:22N 48°20' W 125°05'2 4.8
2018-Jan-27 23:00N 48°21' W 125°04'2 4.8
2018-Jan-27 22:30N 48°23' W 125°01'3 5.2
2018-Jan-27 22:00N 48°25' W 124°59'3 5.3
2018-Jan-27 21:28N 48°26' W 124°55'3 6.8
2018-Jan-27 21:00N 48°27' W 124°51'3 6.4
2018-Jan-27 20:30N 48°27' W 124°46'3 5.9
2018-Jan-27 20:00N 48°26' W 124°42'3 6.0
2018-Jan-27 19:30N 48°25' W 124°37'4 8.3
2018-Jan-27 18:59N 48°23' W 124°32'4 8.7
2018-Jan-27 18:30N 48°21' W 124°26'4 8.9
2018-Jan-27 18:00N 48°19' W 124°20'5 9.3
2018-Jan-27 17:30N 48°17' W 124°13'4 7.8
2018-Jan-27 17:00N 48°16' W 124°08'13 9.0
2018-Jan-27 15:30N 48°12' W 123°49'5 9.7
2018-Jan-27 15:00N 48°11' W 123°42'5 9.1
2018-Jan-27 14:30N 48°12' W 123°35'4 8.6
2018-Jan-27 14:01N 48°12' W 123°28'5 9.5
2018-Jan-27 13:28N 48°12' W 123°21'510.2
2018-Jan-27 13:00N 48°13' W 123°14'5 9.9
2018-Jan-27 12:30N 48°13' W 123°06'510.1
2018-Jan-27 12:00N 48°12' W 122°59'510.3
2018-Jan-27 11:30N 48°12' W 122°51'14 9.1
2018-Jan-27 09:57N 48°02' W 122°37'510.4
2018-Jan-27 09:30N 47°58' W 122°33'5 9.4
2018-Jan-27 09:00N 47°54' W 122°28'510.1
2018-Jan-27 08:30N 47°49' W 122°27'510.1
2018-Jan-27 08:00N 47°44' W 122°26'5 9.7
2018-Jan-27 07:30N 47°40' W 122°27'4 8.6
2018-Jan-27 07:00N 47°36' W 122°23'1 1.9
2018-Jan-27 06:30N 47°36' W 122°22'0 0.0
2018-Jan-27 06:00N 47°36' W 122°22'0 0.1
2018-Jan-27 05:30N 47°35' W 122°22'0 0.1
2018-Jan-27 05:00N 47°36' W 122°22'1 1.5
2018-Jan-27 04:30N 47°35' W 122°21'0 0.0
2018-Jan-27 04:00N 47°35' W 122°21'0 0.0
2018-Jan-27 03:30N 47°35' W 122°21'0 0.0
2018-Jan-27 03:00N 47°35' W 122°21'0 0.0
2018-Jan-27 02:30N 47°35' W 122°21'0 0.0
2018-Jan-27 02:00N 47°35' W 122°21'0 0.4
2018-Jan-27 01:30N 47°35' W 122°21'5 9.4
2018-Jan-27 01:00N 47°39' W 122°26'611.4
2018-Jan-27 00:30N 47°44' W 122°25'611.5
2018-Jan-27 00:00N 47°50' W 122°23'612.6
2018-Jan-26 23:30N 47°56' W 122°20'610.2
2018-Jan-26 22:57N 47°59' W 122°13'0 0.3
2018-Jan-26 22:30N 47°59' W 122°13'0 0.0
2018-Jan-26 22:00N 47°59' W 122°13'0 0.0
2018-Jan-26 21:30N 47°59' W 122°13'0 0.0
2018-Jan-26 21:00N 47°59' W 122°13'0 0.0
2018-Jan-26 20:30N 47°59' W 122°13'0 0.0
2018-Jan-26 19:54N 47°59' W 122°13'0 0.0
2018-Jan-26 19:30N 47°59' W 122°13'0 0.0
2018-Jan-26 19:00N 47°59' W 122°13'  
2018-Jan-22 18:32N 47°59' W 122°13'0 0.0
2018-Jan-22 18:30N 47°59' W 122°13'3 5.5
2018-Jan-22 18:00N 47°58' W 122°17'510.7
2018-Jan-22 17:30N 47°54' W 122°22'612.1
2018-Jan-22 17:00N 47°48' W 122°25'612.4
2018-Jan-22 16:30N 47°42' W 122°26'5 9.4
2018-Jan-22 15:59N 47°37' W 122°24'2 4.5
2018-Jan-22 15:30N 47°36' W 122°22'0 0.8
2018-Jan-22 15:00N 47°36' W 122°22'3 5.7
2018-Jan-22 14:29N 47°38' W 122°26'3 6.6
2018-Jan-22 14:00N 47°41' W 122°28'4 8.6
2018-Jan-22 13:30N 47°45' W 122°27'4 8.5
2018-Jan-22 13:00N 47°49' W 122°28'4 7.7
2018-Jan-22 12:30N 47°53' W 122°29'4 8.1
2018-Jan-22 12:00N 47°56' W 122°32'4 7.6
2018-Jan-22 11:30N 47°59' W 122°36'9 7.3
2018-Jan-22 10:19N 48°07' W 122°41'13 7.9
2018-Jan-22 08:45N 48°11' W 122°58'3 8.0
2018-Jan-22 08:21N 48°12' W 123°03'3 8.6
2018-Jan-22 07:59N 48°12' W 123°08'4 9.0
2018-Jan-22 07:30N 48°12' W 123°14'4 8.4
2018-Jan-22 07:00N 48°12' W 123°21'5 8.7
2018-Jan-22 06:28N 48°12' W 123°28'24 8.5
2018-Jan-22 03:38N 48°15' W 124°04'211.0
2018-Jan-22 03:29N 48°16' W 124°06'4 7.5
2018-Jan-22 02:59N 48°17' W 124°11'510.4
2018-Jan-22 02:30N 48°19' W 124°18'510.4
2018-Jan-22 02:00N 48°22' W 124°25'510.1
2018-Jan-22 01:30N 48°24' W 124°32'5 9.3
2018-Jan-22 01:00N 48°26' W 124°38'  
Track history (hours):
 
Tides and Currents Weather Stations Pressure Air Temp Water Temp Dewpoint Dewpoint Depression Visibility Wind Speed Wind Dir Waves Ship Positions

Phyllis Dunlap

Owner: DUNLAP TOWING CO, LA CONNER, WA. More information available from US FCC via Universal Licensing System and Coast Guard Vessel Documentation Center.

Last reported at 2018-Jan-28 23:53 UTC. Time now 2018-Feb-22 05:29 UTC.
Position N 46°17' W 125°30'.
Warning: this ship's position is 24 days out of date.

Type: . MMSI: 366833610.

Date/timePositionNaut miles runAvg speedWind from/ knotsBaromVisibWave heightAir tempDewpointWater temp
2018-Jan-28 23:53N 46°17' W 125°30'6 4.3
2018-Jan-28 22:36N 46°22' W 125°30'1 4.1
2018-Jan-28 22:21N 46°23' W 125°30'116 5.1
2018-Jan-27 23:43N 48°18' W 125°07'2 4.3
2018-Jan-27 23:22N 48°20' W 125°05'2 4.8
2018-Jan-27 23:00N 48°21' W 125°04'2 4.8
2018-Jan-27 22:30N 48°23' W 125°01'3 5.2
2018-Jan-27 22:00N 48°25' W 124°59'3 5.3
2018-Jan-27 21:28N 48°26' W 124°55'3 6.8
2018-Jan-27 21:00N 48°27' W 124°51'3 6.4
2018-Jan-27 20:30N 48°27' W 124°46'3 5.9
2018-Jan-27 20:00N 48°26' W 124°42'3 6.0
2018-Jan-27 19:30N 48°25' W 124°37'4 8.3
2018-Jan-27 18:59N 48°23' W 124°32'4 8.7
2018-Jan-27 18:30N 48°21' W 124°26'4 8.9
2018-Jan-27 18:00N 48°19' W 124°20'5 9.3
2018-Jan-27 17:30N 48°17' W 124°13'4 7.8
2018-Jan-27 17:00N 48°16' W 124°08'13 9.0
2018-Jan-27 15:30N 48°12' W 123°49'5 9.7
2018-Jan-27 15:00N 48°11' W 123°42'5 9.1
2018-Jan-27 14:30N 48°12' W 123°35'4 8.6
2018-Jan-27 14:01N 48°12' W 123°28'5 9.5
2018-Jan-27 13:28N 48°12' W 123°21'510.2
2018-Jan-27 13:00N 48°13' W 123°14'5 9.9
2018-Jan-27 12:30N 48°13' W 123°06'510.1
2018-Jan-27 12:00N 48°12' W 122°59'510.3
2018-Jan-27 11:30N 48°12' W 122°51'14 9.1
2018-Jan-27 09:57N 48°02' W 122°37'510.4
2018-Jan-27 09:30N 47°58' W 122°33'5 9.4
2018-Jan-27 09:00N 47°54' W 122°28'510.1
2018-Jan-27 08:30N 47°49' W 122°27'510.1
2018-Jan-27 08:00N 47°44' W 122°26'5 9.7
2018-Jan-27 07:30N 47°40' W 122°27'4 8.6
2018-Jan-27 07:00N 47°36' W 122°23'1 1.9
2018-Jan-27 06:30N 47°36' W 122°22'0 0.0
2018-Jan-27 06:00N 47°36' W 122°22'0 0.1
2018-Jan-27 05:30N 47°35' W 122°22'0 0.1
2018-Jan-27 05:00N 47°36' W 122°22'1 1.5
2018-Jan-27 04:30N 47°35' W 122°21'0 0.0
2018-Jan-27 04:00N 47°35' W 122°21'0 0.0
2018-Jan-27 03:30N 47°35' W 122°21'0 0.0
2018-Jan-27 03:00N 47°35' W 122°21'0 0.0
2018-Jan-27 02:30N 47°35' W 122°21'0 0.0
2018-Jan-27 02:00N 47°35' W 122°21'0 0.4
2018-Jan-27 01:30N 47°35' W 122°21'5 9.4
2018-Jan-27 01:00N 47°39' W 122°26'611.4
2018-Jan-27 00:30N 47°44' W 122°25'611.5
2018-Jan-27 00:00N 47°50' W 122°23'612.6
2018-Jan-26 23:30N 47°56' W 122°20'610.2
2018-Jan-26 22:57N 47°59' W 122°13'0 0.3
2018-Jan-26 22:30N 47°59' W 122°13'0 0.0
2018-Jan-26 22:00N 47°59' W 122°13'0 0.0
2018-Jan-26 21:30N 47°59' W 122°13'0 0.0
2018-Jan-26 21:00N 47°59' W 122°13'0 0.0
2018-Jan-26 20:30N 47°59' W 122°13'0 0.0
2018-Jan-26 19:54N 47°59' W 122°13'0 0.0
2018-Jan-26 19:30N 47°59' W 122°13'0 0.0
2018-Jan-26 19:00N 47°59' W 122°13'  
2018-Jan-22 18:32N 47°59' W 122°13'0 0.0
2018-Jan-22 18:30N 47°59' W 122°13'3 5.5
2018-Jan-22 18:00N 47°58' W 122°17'510.7
2018-Jan-22 17:30N 47°54' W 122°22'612.1
2018-Jan-22 17:00N 47°48' W 122°25'612.4
2018-Jan-22 16:30N 47°42' W 122°26'5 9.4
2018-Jan-22 15:59N 47°37' W 122°24'2 4.5
2018-Jan-22 15:30N 47°36' W 122°22'0 0.8
2018-Jan-22 15:00N 47°36' W 122°22'3 5.7
2018-Jan-22 14:29N 47°38' W 122°26'3 6.6
2018-Jan-22 14:00N 47°41' W 122°28'4 8.6
2018-Jan-22 13:30N 47°45' W 122°27'4 8.5
2018-Jan-22 13:00N 47°49' W 122°28'4 7.7
2018-Jan-22 12:30N 47°53' W 122°29'4 8.1
2018-Jan-22 12:00N 47°56' W 122°32'4 7.6
2018-Jan-22 11:30N 47°59' W 122°36'9 7.3
2018-Jan-22 10:19N 48°07' W 122°41'13 7.9
2018-Jan-22 08:45N 48°11' W 122°58'3 8.0
2018-Jan-22 08:21N 48°12' W 123°03'3 8.6
2018-Jan-22 07:59N 48°12' W 123°08'4 9.0
2018-Jan-22 07:30N 48°12' W 123°14'4 8.4
2018-Jan-22 07:00N 48°12' W 123°21'5 8.7
2018-Jan-22 06:28N 48°12' W 123°28'24 8.5
2018-Jan-22 03:38N 48°15' W 124°04'211.0
2018-Jan-22 03:29N 48°16' W 124°06'4 7.5
2018-Jan-22 02:59N 48°17' W 124°11'510.4
2018-Jan-22 02:30N 48°19' W 124°18'510.4
2018-Jan-22 02:00N 48°22' W 124°25'510.1
2018-Jan-22 01:30N 48°24' W 124°32'5 9.3
2018-Jan-22 01:00N 48°26' W 124°38'  

Dump ship's entire track history